Time;durP1;ratioP1;P1;durP2;ratioP2;P2;SDS_P1;SDS_P2;PMS_P1;PMS_P2;Temp;Humidity;BMP_temperature;BMP_pressure;BME280_temperature;BME280_humidity;BME280_pressure;Samples;Min_cycle;Max_cycle;Signal;HPM_P1;HPM_P2
2023/06/01 00:00:31;;;;;;;;;;;;;;;28.75;31.58;100813.03;5068062;28;1222;-38
2023/06/01 00:02:56;;;;;;;;;;;;;;;28.37;31.98;100808.66;5071041;28;1083;-38
2023/06/01 00:05:22;;;;;;;;;;;;;;;28.35;31.98;100810.72;5067474;28;1090;-39
2023/06/01 00:07:47;;;;;;;;;;;;;;;28.67;31.75;100805.03;5059316;28;1106;-38
2023/06/01 00:10:13;;;;;;;;;;;;;;;28.63;31.54;100804.56;5066795;28;1217;-38
2023/06/01 00:12:38;;;;;;;;;;;;;;;28.70;31.61;100805.50;5073587;28;1206;-37
2023/06/01 00:15:04;;;;;;;;;;;;;;;28.67;31.80;100800.47;5067621;28;1147;-39
2023/06/01 00:17:30;;;;;;;;;;;;;;;28.56;31.96;100800.97;5074164;28;990;-38
2023/06/01 00:19:56;;;;;;;;;;;;;;;28.54;31.70;100800.31;5076458;28;1969;-37
2023/06/01 00:22:23;;;;;;;;;;;;;;;28.72;31.67;100797.16;5063350;28;1022;-37
2023/06/01 00:24:49;;;;;;;;;;;;;;;28.73;31.71;100799.69;5077023;28;1011;-36
2023/06/01 00:27:15;;;;;;;;;;;;;;;28.72;31.71;100791.75;5063843;28;1129;-37
2023/06/01 00:29:40;;;;;;;;;;;;;;;28.82;31.47;100792.28;5067241;28;1190;-38
2023/06/01 00:32:06;;;;;;;;;;;;;;;28.84;31.39;100792.91;5070909;28;1062;-39
2023/06/01 00:34:31;;;;;;;;;;;;;;;28.79;31.58;100791.81;5066461;28;1107;-37
2023/06/01 00:36:57;;;;;;;;;;;;;;;28.84;31.32;100798.31;5063698;28;1102;-39
2023/06/01 00:39:22;;;;;;;;;;;;;;;28.81;31.42;100787.88;5076743;28;1902;-38
2023/06/01 00:41:48;;;;;;;;;;;;;;;28.66;31.57;100795.25;5059075;28;1268;-38
2023/06/01 00:44:13;;;;;;;;;;;;;;;28.85;31.36;100794.59;5049733;28;1228;-33
2023/06/01 00:46:39;;;;;;;;;;;;;;;28.90;31.12;100796.72;5070511;28;1071;-38
2023/06/01 00:49:05;;;;;;;;;;;;;;;28.91;31.17;100797.56;5047587;28;1306;-38
2023/06/01 00:51:31;;;;;;;;;;;;;;;28.75;31.49;100793.22;5076637;28;1141;-38
2023/06/01 00:53:57;;;;;;;;;;;;;;;28.64;31.35;100783.75;5059229;28;1112;-38
2023/06/01 00:56:22;;;;;;;;;;;;;;;28.89;31.32;100796.91;5074115;28;1130;-38
2023/06/01 00:58:48;;;;;;;;;;;;;;;28.94;31.22;100798.03;5065797;28;1972;-38
2023/06/01 01:01:18;;;;;;;;;;;;;;;28.24;32.40;100787.69;5076597;28;1119;-38
2023/06/01 01:03:47;;;;;;;;;;;;;;;28.57;31.71;100783.69;5066995;28;1043;-37
2023/06/01 01:06:22;;;;;;;;;;;;;;;28.78;31.60;100782.84;5070288;28;1083;-39
2023/06/01 01:08:51;;;;;;;;;;;;;;;28.91;30.90;100786.72;5055991;28;1130;-39
2023/06/01 01:11:18;;;;;;;;;;;;;;;28.94;30.92;100787.19;5062923;28;1083;-37
2023/06/01 01:13:50;;;;;;;;;;;;;;;28.76;31.18;100790.31;5058315;28;1051;-38
2023/06/01 01:16:20;;;;;;;;;;;;;;;28.87;31.23;100793.56;5041562;28;1269;-39
2023/06/01 01:18:54;;;;;;;;;;;;;;;28.87;31.02;100790.84;5058484;28;1977;-39
2023/06/01 01:21:27;;;;;;;;;;;;;;;28.88;31.07;100797.97;5045887;28;1245;-39
2023/06/01 01:24:12;;;;;;;;;;;;;;;28.80;30.69;100788.91;5044933;28;1226;-40
2023/06/01 01:26:40;;;;;;;;;;;;;;;28.80;30.94;100785.38;5067011;28;1015;-36
2023/06/01 01:29:06;;;;;;;;;;;;;;;28.90;30.98;100785.88;5076530;28;1123;-38
2023/06/01 01:31:32;;;;;;;;;;;;;;;28.24;31.94;100787.69;5040533;28;1126;-38
2023/06/01 01:33:57;;;;;;;;;;;;;;;27.81;33.39;100777.56;5039104;28;1165;-39
2023/06/01 01:36:23;;;;;;;;;;;;;;;27.80;33.30;100789.41;5058226;28;1212;-38
2023/06/01 01:38:49;;;;;;;;;;;;;;;27.57;33.53;100784.88;5062791;28;1917;-37
2023/06/01 01:41:16;;;;;;;;;;;;;;;27.58;33.76;100783.84;5076133;28;1043;-38
2023/06/01 01:43:42;;;;;;;;;;;;;;;27.50;33.76;100787.50;5063984;28;1143;-39
2023/06/01 01:46:25;;;;;;;;;;;;;;;27.67;33.48;100792.72;5076068;28;1110;-39
2023/06/01 01:48:51;;;;;;;;;;;;;;;27.81;33.09;100791.09;5075856;28;936;-39
2023/06/01 01:51:19;;;;;;;;;;;;;;;27.85;33.14;100793.22;5058146;28;1119;-37
2023/06/01 01:53:45;;;;;;;;;;;;;;;27.66;33.66;100793.75;5045810;28;1129;-36
2023/06/01 01:56:10;;;;;;;;;;;;;;;27.67;33.44;100798.97;5057590;28;1734;-38
2023/06/01 01:58:36;;;;;;;;;;;;;;;27.79;33.26;100796.69;5050983;28;1959;-39
2023/06/01 02:01:02;;;;;;;;;;;;;;;28.17;32.62;100798.41;5051605;28;1304;-39
2023/06/01 02:03:28;;;;;;;;;;;;;;;28.44;32.40;100800.63;5045405;28;1126;-38
2023/06/01 02:05:54;;;;;;;;;;;;;;;28.59;31.84;100795.16;5058075;28;1208;-39
2023/06/01 02:08:20;;;;;;;;;;;;;;;28.58;32.18;100794.31;5050299;28;970;-39
2023/06/01 02:10:45;;;;;;;;;;;;;;;28.69;31.97;100801.13;5069941;28;968;-38
2023/06/01 02:13:12;;;;;;;;;;;;;;;28.10;32.01;100694.72;5058149;28;1206;-38
2023/06/01 02:15:37;;;;;;;;;;;;;;;28.66;32.25;100806.88;5075461;28;1035;-38
2023/06/01 02:18:03;;;;;;;;;;;;;;;28.78;31.77;100809.09;5063389;28;1973;-38
2023/06/01 02:20:29;;;;;;;;;;;;;;;28.79;32.09;100805.34;5053337;28;1220;-39
2023/06/01 02:22:54;;;;;;;;;;;;;;;28.66;32.03;100806.88;5045058;28;1072;-38
2023/06/01 02:25:20;;;;;;;;;;;;;;;28.68;32.67;100803.97;5057105;28;1151;-39
2023/06/01 02:27:45;;;;;;;;;;;;;;;28.72;32.24;100808.84;5045090;28;1142;-39
2023/06/01 02:30:11;;;;;;;;;;;;;;;28.74;32.49;100803.25;5057591;28;1156;-41
2023/06/01 02:32:37;;;;;;;;;;;;;;;28.80;32.68;100809.72;5076021;28;840;-38
2023/06/01 02:35:03;;;;;;;;;;;;;;;28.75;32.72;100809.47;5061406;28;1216;-38
2023/06/01 02:37:29;;;;;;;;;;;;;;;28.80;32.67;100810.59;5079212;28;1117;-39
2023/06/01 02:39:55;;;;;;;;;;;;;;;28.81;32.86;100808.72;5061302;28;1966;-38
2023/06/01 02:42:21;;;;;;;;;;;;;;;28.78;33.03;100801.00;5048155;28;1312;-38
2023/06/01 02:44:47;;;;;;;;;;;;;;;28.72;33.17;100803.44;5060718;28;1342;-38
2023/06/01 02:47:12;;;;;;;;;;;;;;;28.72;33.18;100803.44;5073026;28;1012;-37
2023/06/01 02:49:38;;;;;;;;;;;;;;;28.72;33.30;100806.13;5054517;28;1226;-39
2023/06/01 02:52:05;;;;;;;;;;;;;;;28.79;32.96;100805.34;5047684;28;1144;-38
2023/06/01 02:54:30;;;;;;;;;;;;;;;28.81;32.91;100811.44;5047731;28;1182;-38
2023/06/01 02:57:01;;;;;;;;;;;;;;;28.76;33.32;100811.16;5053127;28;1099;-38
2023/06/01 02:59:39;;;;;;;;;;;;;;;28.79;33.35;100810.78;5060824;28;1894;-39
2023/06/01 03:02:05;;;;;;;;;;;;;;;28.79;33.41;100817.03;5060989;28;1118;-39
2023/06/01 03:04:32;;;;;;;;;;;;;;;28.86;32.91;100811.69;5058920;28;1174;-37
2023/06/01 03:06:58;;;;;;;;;;;;;;;28.75;33.19;100809.47;5049792;28;1166;-37
2023/06/01 03:09:47;;;;;;;;;;;;;;;28.81;33.11;100814.94;5072505;28;1170;-38
2023/06/01 03:12:36;;;;;;;;;;;;;;;28.78;33.37;100809.09;5053889;28;1449;-39
2023/06/01 03:15:02;;;;;;;;;;;;;;;28.77;33.17;100810.13;5049639;28;1234;-38
2023/06/01 03:17:28;;;;;;;;;;;;;;;28.70;33.49;100813.59;5064643;28;1115;-39
2023/06/01 03:19:54;;;;;;;;;;;;;;;28.80;33.22;100821.41;5060230;28;1906;-37
2023/06/01 03:22:22;;;;;;;;;;;;;;;28.81;33.48;100814.94;5058091;28;2012;-39
2023/06/01 03:24:50;;;;;;;;;;;;;;;28.07;34.08;100817.66;5032463;28;1183;-36
2023/06/01 03:27:19;;;;;;;;;;;;;;;28.22;34.09;100814.06;5057576;28;1376;-37
2023/06/01 03:29:45;;;;;;;;;;;;;;;27.83;34.75;100821.44;5050325;28;1084;-36
2023/06/01 03:32:10;;;;;;;;;;;;;;;27.80;34.18;100821.84;5046672;28;1139;-39
2023/06/01 03:34:36;;;;;;;;;;;;;;;27.74;34.31;100824.25;5050463;28;1154;-39
2023/06/01 03:37:04;;;;;;;;;;;;;;;27.85;34.14;100822.13;5053480;28;1031;-39
2023/06/01 03:39:33;;;;;;;;;;;;;;;28.04;33.64;100825.28;5039879;28;2379;-38
2023/06/01 03:41:59;;;;;;;;;;;;;;;27.72;35.21;100822.78;5044507;28;1331;-39
2023/06/01 03:44:25;;;;;;;;;;;;;;;27.54;35.99;100823.94;5052117;28;1285;-35
2023/06/01 03:46:51;;;;;;;;;;;;;;;26.60;36.08;100820.41;5060713;28;1110;-36
2023/06/01 03:49:16;;;;;;;;;;;;;;;25.90;36.41;100823.72;5051116;28;2049;-35
2023/06/01 03:51:42;;;;;;;;;;;;;;;25.08;37.72;100823.63;5042103;28;1083;-35
2023/06/01 03:54:08;;;;;;;;;;;;;;;24.93;38.11;100831.50;5051486;28;1107;-38
2023/06/01 03:56:35;;;;;;;;;;;;;;;25.49;36.01;100825.44;5046357;28;1170;-39
2023/06/01 03:59:01;;;;;;;;;;;;;;;25.39;37.41;100827.50;5048113;28;1981;-39
2023/06/01 04:01:29;;;;;;;;;;;;;;;25.09;37.83;100829.84;5053278;28;1210;-37
2023/06/01 04:03:56;;;;;;;;;;;;;;;24.31;35.75;100828.13;5051493;28;1369;-38
2023/06/01 04:06:23;;;;;;;;;;;;;;;24.68;37.51;100826.91;5046468;28;1155;-37
2023/06/01 04:08:57;;;;;;;;;;;;;;;24.99;37.13;100827.31;5044580;28;1098;-37
2023/06/01 04:11:22;;;;;;;;;;;;;;;25.06;37.04;100836.38;5065400;28;1051;-38
2023/06/01 04:13:49;;;;;;;;;;;;;;;25.05;37.16;100835.56;5048319;28;1266;-39
2023/06/01 04:16:18;;;;;;;;;;;;;;;24.98;37.46;100834.53;5052613;28;1269;-38
2023/06/01 04:18:43;;;;;;;;;;;;;;;25.03;37.67;100837.59;5061850;28;1987;-38
2023/06/01 04:21:17;;;;;;;;;;;;;;;25.35;37.10;100839.59;5047184;28;890;-37
2023/06/01 04:23:43;;;;;;;;;;;;;;;25.59;37.33;100841.44;5030085;28;1148;-40
2023/06/01 04:26:11;;;;;;;;;;;;;;;25.83;36.60;100841.59;5058220;28;1253;-42
2023/06/01 04:28:43;;;;;;;;;;;;;;;25.97;36.47;100848.13;5061413;28;1099;-41
2023/06/01 04:31:16;;;;;;;;;;;;;;;26.07;36.49;100847.94;5039514;28;1310;-40
2023/06/01 04:33:44;;;;;;;;;;;;;;;26.09;36.45;100843.22;5039243;28;1123;-39
2023/06/01 04:36:11;;;;;;;;;;;;;;;26.31;36.10;100844.28;5039182;28;1229;-39
2023/06/01 04:38:40;;;;;;;;;;;;;;;26.20;36.69;100842.84;5054040;28;1898;-40
2023/06/01 04:41:07;;;;;;;;;;;;;;;26.19;36.94;100838.47;5056438;28;1067;-40
2023/06/01 04:43:32;;;;;;;;;;;;;;;26.25;36.54;100843.16;5039125;28;1321;-39
2023/06/01 04:46:03;;;;;;;;;;;;;;;26.23;36.73;100837.09;5048865;28;1104;-40
2023/06/01 04:48:31;;;;;;;;;;;;;;;26.32;36.32;100837.06;5059178;28;1389;-40
2023/06/01 04:50:58;;;;;;;;;;;;;;;26.31;37.08;100841.59;5038771;28;1470;-40
2023/06/01 04:53:24;;;;;;;;;;;;;;;26.32;36.91;100837.91;5052837;28;1364;-40
2023/06/01 04:55:50;;;;;;;;;;;;;;;26.46;36.70;100838.22;5057840;28;1334;-40
2023/06/01 04:58:16;;;;;;;;;;;;;;;26.37;36.69;100840.94;5056373;28;1886;-40
2023/06/01 05:00:43;;;;;;;;;;;;;;;26.57;36.38;100840.50;5067864;28;1087;-41
2023/06/01 05:03:08;;;;;;;;;;;;;;;26.54;35.94;100843.56;5051384;28;1206;-40
2023/06/01 05:05:34;;;;;;;;;;;;;;;26.66;36.43;100841.28;5038330;28;1027;-40
2023/06/01 05:07:59;;;;;;;;;;;;;;;26.70;36.60;100844.47;5040548;28;1290;-40
2023/06/01 05:10:26;;;;;;;;;;;;;;;26.47;37.02;100845.28;5037864;28;1147;-40
2023/06/01 05:12:51;;;;;;;;;;;;;;;26.50;36.95;100842.22;5061294;28;1270;-40
2023/06/01 05:15:17;;;;;;;;;;;;;;;26.60;37.17;100852.78;5043721;28;1219;-40
2023/06/01 05:17:44;;;;;;;;;;;;;;;26.75;36.95;100847.47;5038327;28;1373;-40
2023/06/01 05:20:14;;;;;;;;;;;;;;;26.59;36.91;100849.25;5039055;28;1159;-41
2023/06/01 05:22:42;;;;;;;;;;;;;;;26.65;36.59;100853.09;5043466;28;1316;-40
2023/06/01 05:25:08;;;;;;;;;;;;;;;27.02;36.24;100856.97;5040769;28;1139;-40
2023/06/01 05:27:34;;;;;;;;;;;;;;;26.49;37.14;100852.16;5054287;28;1365;-40
2023/06/01 05:30:01;;;;;;;;;;;;;;;26.45;37.71;100853.53;5050470;28;1553;-40
2023/06/01 05:32:26;;;;;;;;;;;;;;;26.99;36.42;100846.47;5043141;28;1282;-41
2023/06/01 05:34:55;;;;;;;;;;;;;;;26.74;36.95;100848.50;5038501;28;1312;-41
2023/06/01 05:37:21;;;;;;;;;;;;;;;26.80;35.86;100855.88;5055917;28;1272;-41
2023/06/01 05:39:47;;;;;;;;;;;;;;;26.91;36.58;100851.91;5046037;28;1914;-40
2023/06/01 05:42:13;;;;;;;;;;;;;;;26.70;37.02;100841.78;5056776;28;1430;-40
2023/06/01 05:44:39;;;;;;;;;;;;;;;26.82;36.64;100850.31;5057899;28;1318;-42
2023/06/01 05:47:05;;;;;;;;;;;;;;;26.45;37.30;100848.16;5056659;28;1303;-41
2023/06/01 05:49:31;;;;;;;;;;;;;;;26.64;36.92;100851.44;5045441;28;1261;-40
2023/06/01 05:51:58;;;;;;;;;;;;;;;26.46;37.33;100855.22;5054052;28;1218;-40
2023/06/01 05:54:24;;;;;;;;;;;;;;;26.50;37.10;100845.78;5038209;28;1409;-41
2023/06/01 05:56:50;;;;;;;;;;;;;;;26.47;36.88;100850.66;5040665;28;1063;-41
2023/06/01 05:59:16;;;;;;;;;;;;;;;26.49;37.23;100848.66;5050294;28;1909;-41
2023/06/01 06:01:44;;;;;;;;;;;;;;;26.86;37.07;100844.34;5057149;28;1099;-41
2023/06/01 06:04:10;;;;;;;;;;;;;;;27.12;36.55;100855.88;5068873;28;1084;-42
2023/06/01 06:06:36;;;;;;;;;;;;;;;27.19;36.44;100853.28;5059719;28;1030;-42
2023/06/01 06:09:02;;;;;;;;;;;;;;;27.48;35.69;100852.53;5068488;28;1152;-40
2023/06/01 06:11:27;;;;;;;;;;;;;;;26.83;36.92;100851.97;5062432;28;1037;-40
2023/06/01 06:13:53;;;;;;;;;;;;;;;26.80;37.03;100847.78;5068988;28;1120;-41
2023/06/01 06:16:18;;;;;;;;;;;;;;;26.84;36.96;100853.66;5062774;28;1478;-41
2023/06/01 06:18:44;;;;;;;;;;;;;;;26.76;37.20;100852.69;5060003;28;1898;-41
2023/06/01 06:21:09;;;;;;;;;;;;;;;26.83;36.93;100854.66;5059627;28;1043;-41
2023/06/01 06:23:35;;;;;;;;;;;;;;;26.81;37.27;100852.16;5063903;28;1190;-42
2023/06/01 06:26:01;;;;;;;;;;;;;;;26.72;37.61;100851.38;5067833;28;1282;-39
2023/06/01 06:28:26;;;;;;;;;;;;;;;26.99;36.80;100864.53;5061390;28;989;-41
2023/06/01 06:30:52;;;;;;;;;;;;;;;26.77;37.43;100857.09;5070315;28;1117;-40
2023/06/01 06:33:17;;;;;;;;;;;;;;;26.75;37.62;100852.88;5062176;28;1104;-42
2023/06/01 06:35:43;;;;;;;;;;;;;;;26.87;37.20;100862.25;5058918;28;1093;-41
2023/06/01 06:38:09;;;;;;;;;;;;;;;26.82;36.89;100855.69;5065520;28;1910;-41
2023/06/01 06:40:35;;;;;;;;;;;;;;;26.88;37.02;100860.38;5059327;28;1115;-42
2023/06/01 06:43:01;;;;;;;;;;;;;;;26.88;37.16;100857.69;5062117;28;1068;-41
2023/06/01 06:45:26;;;;;;;;;;;;;;;26.87;37.17;100864.09;5064205;28;1198;-41
2023/06/01 06:47:52;;;;;;;;;;;;;;;26.84;37.19;100862.59;5064242;28;1130;-41
2023/06/01 06:50:17;;;;;;;;;;;;;;;26.82;37.32;100867.34;5078850;28;1046;-41
2023/06/01 06:52:43;;;;;;;;;;;;;;;26.85;36.85;100863.44;5068103;28;1246;-41
2023/06/01 06:55:08;;;;;;;;;;;;;;;26.77;37.23;100864.34;5078791;28;1268;-42
2023/06/01 06:57:35;;;;;;;;;;;;;;;27.00;36.81;100866.22;5066736;28;1246;-42
2023/06/01 07:00:05;;;;;;;;;;;;;;;26.99;36.63;100859.97;5071915;28;1906;-42
2023/06/01 07:02:31;;;;;;;;;;;;;;;26.97;36.73;100861.16;5064935;28;1027;-41
2023/06/01 07:04:57;;;;;;;;;;;;;;;26.97;36.31;100861.16;5072567;28;1135;-41
2023/06/01 07:07:22;;;;;;;;;;;;;;;26.90;36.42;100858.34;5076450;28;1162;-41
2023/06/01 07:09:48;;;;;;;;;;;;;;;26.93;36.80;100857.13;5058800;28;1099;-41
2023/06/01 07:12:13;;;;;;;;;;;;;;;26.99;36.51;100859.97;5069268;28;1143;-39
2023/06/01 07:14:39;;;;;;;;;;;;;;;27.07;36.86;100852.88;5057931;28;989;-41
2023/06/01 07:17:05;;;;;;;;;;;;;;;26.92;37.36;100856.31;5069913;28;1167;-41
2023/06/01 07:19:32;;;;;;;;;;;;;;;26.98;37.70;100849.34;5076961;28;1987;-42
2023/06/01 07:22:01;;;;;;;;;;;;;;;27.14;37.15;100853.84;5059014;28;1439;-42
2023/06/01 07:24:27;;;;;;;;;;;;;;;27.12;36.78;100861.25;5064779;28;1214;-41
2023/06/01 07:26:53;;;;;;;;;;;;;;;26.99;37.40;100859.13;5066441;28;1347;-41
2023/06/01 07:29:20;;;;;;;;;;;;;;;27.06;37.20;100854.72;5064003;28;1250;-41
2023/06/01 07:31:46;;;;;;;;;;;;;;;27.12;37.00;100859.41;5065358;28;1230;-41
2023/06/01 07:34:11;;;;;;;;;;;;;;;27.13;36.99;100865.63;5062759;28;1112;-43
2023/06/01 07:36:38;;;;;;;;;;;;;;;27.22;36.75;100859.16;5067341;28;1039;-40
2023/06/01 07:39:06;;;;;;;;;;;;;;;27.18;36.54;100849.72;5061490;28;1913;-41
2023/06/01 07:41:32;;;;;;;;;;;;;;;27.14;36.95;100859.22;5062602;28;1035;-41
2023/06/01 07:43:58;;;;;;;;;;;;;;;27.22;36.57;100859.16;5063598;28;1147;-41
2023/06/01 07:46:23;;;;;;;;;;;;;;;27.13;37.07;100858.38;5069355;28;1088;-41
2023/06/01 07:48:50;;;;;;;;;;;;;;;27.22;36.63;100853.75;5066190;28;1094;-41
2023/06/01 07:51:15;;;;;;;;;;;;;;;27.17;36.71;100855.31;5069904;28;1098;-40
2023/06/01 07:53:41;;;;;;;;;;;;;;;27.20;36.78;100855.81;5064582;28;1080;-43
2023/06/01 07:56:07;;;;;;;;;;;;;;;27.28;36.63;100852.19;5064828;28;1201;-41
2023/06/01 07:58:33;;;;;;;;;;;;;;;27.34;36.72;100858.72;5072966;28;1909;-41
2023/06/01 08:00:58;;;;;;;;;;;;;;;27.33;36.57;100851.63;5065386;28;1182;-41
2023/06/01 08:03:25;;;;;;;;;;;;;;;27.48;36.25;100844.41;5075146;28;1131;-40
2023/06/01 08:05:54;;;;;;;;;;;;;;;27.25;36.43;100845.31;5077183;28;1123;-41
2023/06/01 08:08:21;;;;;;;;;;;;;;;27.25;36.27;100842.59;5069046;28;1031;-41
2023/06/01 08:10:46;;;;;;;;;;;;;;;27.30;36.42;100833.09;5064149;28;1177;-41
2023/06/01 08:13:13;;;;;;;;;;;;;;;27.32;36.72;100833.75;5071635;28;1558;-39
2023/06/01 08:15:38;;;;;;;;;;;;;;;27.60;36.38;100844.81;5057408;28;1195;-41
2023/06/01 08:18:04;;;;;;;;;;;;;;;27.29;36.71;100834.97;5068243;28;1984;-41
2023/06/01 08:20:30;;;;;;;;;;;;;;;27.27;36.09;100834.31;5069636;28;1170;-41
2023/06/01 08:22:56;;;;;;;;;;;;;;;27.29;36.42;100828.72;5058328;28;1121;-41
2023/06/01 08:25:22;;;;;;;;;;;;;;;27.35;36.39;100828.00;5069513;28;1114;-41
2023/06/01 08:27:49;;;;;;;;;;;;;;;27.31;36.49;100829.38;5070721;28;1079;-41
2023/06/01 08:30:15;;;;;;;;;;;;;;;27.39;35.99;100827.44;5076136;28;1071;-40
2023/06/01 08:32:40;;;;;;;;;;;;;;;27.26;36.55;100825.34;5068430;28;1166;-41
2023/06/01 08:35:07;;;;;;;;;;;;;;;27.16;36.88;100822.06;5063319;28;1075;-41
2023/06/01 08:37:33;;;;;;;;;;;;;;;27.14;36.75;100813.34;5077047;28;1101;-40
2023/06/01 08:39:59;;;;;;;;;;;;;;;27.22;36.78;100813.25;5058625;28;1980;-41
2023/06/01 08:42:33;;;;;;;;;;;;;;;27.16;37.05;100813.16;5063542;28;1242;-41
2023/06/01 08:44:59;;;;;;;;;;;;;;;27.18;36.44;100803.81;5064654;28;1303;-41
2023/06/01 08:47:26;;;;;;;;;;;;;;;27.16;36.31;100802.34;5057920;28;1390;-42
2023/06/01 08:49:51;;;;;;;;;;;;;;;27.39;35.68;100799.59;5077013;28;1094;-41
2023/06/01 08:52:18;;;;;;;;;;;;;;;27.15;36.61;100801.50;5052397;28;1080;-41
2023/06/01 08:54:44;;;;;;;;;;;;;;;27.09;36.79;100805.75;5075201;28;1150;-41
2023/06/01 08:57:09;;;;;;;;;;;;;;;27.16;36.48;100800.47;5045746;28;1426;-41
2023/06/01 08:59:35;;;;;;;;;;;;;;;27.12;36.44;100800.00;5038421;28;1902;-40
2023/06/01 09:02:00;;;;;;;;;;;;;;;27.17;36.17;100802.16;5065651;28;1281;-41
2023/06/01 09:04:26;;;;;;;;;;;;;;;27.12;36.64;100801.88;5062655;28;1237;-39
2023/06/01 09:06:52;;;;;;;;;;;;;;;27.14;36.55;100800.66;5076506;28;991;-41
2023/06/01 09:09:17;;;;;;;;;;;;;;;27.19;36.43;100802.81;5076490;28;1046;-39
2023/06/01 09:11:43;;;;;;;;;;;;;;;27.22;36.78;100801.59;5075342;28;903;-40
2023/06/01 09:14:25;;;;;;;;;;;;;;;27.26;36.86;100803.75;5065201;28;972;-41
2023/06/01 09:16:50;;;;;;;;;;;;;;;27.35;35.91;100800.97;5064653;28;1027;-41
2023/06/01 09:19:18;;;;;;;;;;;;;;;27.29;36.32;100801.72;5080408;28;1977;-41
2023/06/01 09:21:57;;;;;;;;;;;;;;;27.37;35.51;100804.34;5055549;28;1055;-41
2023/06/01 09:24:22;;;;;;;;;;;;;;;27.42;35.57;100803.78;5071324;28;1032;-41
2023/06/01 09:26:48;;;;;;;;;;;;;;;27.45;35.64;100804.25;5076039;28;1225;-40
2023/06/01 09:29:15;;;;;;;;;;;;;;;27.51;35.39;100814.31;5076103;28;1093;-41
2023/06/01 09:31:42;;;;;;;;;;;;;;;27.61;35.25;100810.53;5062568;28;1173;-41
2023/06/01 09:34:08;;;;;;;;;;;;;;;27.79;34.96;100812.06;5070230;28;1182;-41
2023/06/01 09:36:33;;;;;;;;;;;;;;;27.78;35.01;100810.38;5068036;28;866;-41
2023/06/01 09:39:00;;;;;;;;;;;;;;;27.89;34.83;100811.78;5062642;28;1969;-42
2023/06/01 09:41:25;;;;;;;;;;;;;;;27.73;34.87;100808.22;5062955;28;1020;-41
2023/06/01 09:43:51;;;;;;;;;;;;;;;27.73;34.90;100803.66;5040999;28;1162;-41
2023/06/01 09:46:17;;;;;;;;;;;;;;;27.89;34.52;100809.06;5060004;28;1160;-40
2023/06/01 09:48:44;;;;;;;;;;;;;;;27.81;34.38;100808.13;5068122;28;1193;-42
2023/06/01 09:51:25;;;;;;;;;;;;;;;27.70;34.51;100803.19;5067100;28;862;-41
2023/06/01 09:53:50;;;;;;;;;;;;;;;27.79;34.28;100806.66;5065676;28;1041;-41
2023/06/01 09:56:16;;;;;;;;;;;;;;;27.88;34.14;100808.22;5073781;28;1231;-41
2023/06/01 09:58:41;;;;;;;;;;;;;;;27.94;34.13;100812.06;5064289;28;1902;-40
2023/06/01 10:01:10;;;;;;;;;;;;;;;27.82;34.13;100804.41;5050356;28;971;-41
2023/06/01 10:03:37;;;;;;;;;;;;;;;27.77;33.84;100798.72;5064264;28;1297;-41
2023/06/01 10:06:02;;;;;;;;;;;;;;;27.79;33.97;100801.25;5056033;28;1392;-41
2023/06/01 10:08:28;;;;;;;;;;;;;;;27.75;34.10;100803.47;5054581;28;1253;-41
2023/06/01 10:10:53;;;;;;;;;;;;;;;27.88;33.87;100794.69;5050534;28;1107;-41
2023/06/01 10:13:22;;;;;;;;;;;;;;;27.74;34.30;100794.53;5072923;28;1162;-41
2023/06/01 10:15:47;;;;;;;;;;;;;;;27.67;34.45;100790.03;5059880;28;1029;-41
2023/06/01 10:18:13;;;;;;;;;;;;;;;27.79;34.17;100785.03;5062814;28;1976;-41
2023/06/01 10:20:39;;;;;;;;;;;;;;;27.83;33.96;100791.72;5056266;28;1255;-41
2023/06/01 10:23:05;;;;;;;;;;;;;;;27.81;34.25;100778.41;5067900;28;1235;-41
2023/06/01 10:25:32;;;;;;;;;;;;;;;27.79;34.28;100788.56;5072613;28;1215;-41
2023/06/01 10:28:02;;;;;;;;;;;;;;;27.79;34.15;100782.31;5072269;28;1054;-41
2023/06/01 10:30:27;;;;;;;;;;;;;;;27.83;33.99;100780.91;5064940;28;1086;-42
2023/06/01 10:32:54;;;;;;;;;;;;;;;27.93;33.91;100784.16;5051942;28;1087;-41
2023/06/01 10:35:28;;;;;;;;;;;;;;;27.87;33.97;100780.38;5072294;28;1154;-42
2023/06/01 10:38:06;;;;;;;;;;;;;;;28.07;33.64;100778.94;5059237;28;1042;-40
2023/06/01 10:40:33;;;;;;;;;;;;;;;28.30;33.44;100770.69;5077385;28;1238;-40
2023/06/01 10:42:58;;;;;;;;;;;;;;;28.57;32.70;100778.28;5078619;28;1054;-41
2023/06/01 10:45:37;;;;;;;;;;;;;;;28.16;33.38;100769.69;5041923;28;1192;-42
2023/06/01 10:48:03;;;;;;;;;;;;;;;28.03;33.38;100767.66;5032737;28;1107;-41
2023/06/01 10:50:28;;;;;;;;;;;;;;;27.93;33.89;100764.41;5022952;28;1155;-41
2023/06/01 10:52:54;;;;;;;;;;;;;;;27.93;33.70;100761.69;5034972;28;1199;-41
2023/06/01 10:55:20;;;;;;;;;;;;;;;28.50;33.12;100755.72;5027343;28;1166;-40
2023/06/01 10:57:46;;;;;;;;;;;;;;;28.40;33.12;100756.88;5036761;28;1148;-41
2023/06/01 11:00:15;;;;;;;;;;;;;;;28.36;33.85;100756.41;5038798;28;1980;-40
2023/06/01 11:02:48;;;;;;;;;;;;;;;28.49;33.43;100752.19;5033337;28;1024;-40
2023/06/01 11:05:32;;;;;;;;;;;;;;;28.82;33.44;100756.25;5031528;28;1134;-42
2023/06/01 11:07:58;;;;;;;;;;;;;;;28.38;33.24;100752.69;5018693;28;1056;-42
2023/06/01 11:10:42;;;;;;;;;;;;;;;28.52;33.49;100746.38;5033464;28;1051;-43
2023/06/01 11:13:10;;;;;;;;;;;;;;;28.56;33.37;100747.66;5027191;28;961;-43
2023/06/01 11:15:38;;;;;;;;;;;;;;;28.76;33.11;100747.00;5031829;28;1151;-40
2023/06/01 11:18:23;;;;;;;;;;;;;;;28.69;33.06;100738.00;5018551;28;1914;-44
2023/06/01 11:20:49;;;;;;;;;;;;;;;28.40;33.87;100737.94;5026595;28;1012;-43
2023/06/01 11:23:14;;;;;;;;;;;;;;;28.19;34.35;100731.47;5024703;28;1134;-42
2023/06/01 11:25:41;;;;;;;;;;;;;;;28.08;34.36;100724.66;5030204;28;941;-43
2023/06/01 11:28:06;;;;;;;;;;;;;;;28.17;34.39;100727.25;5030447;28;1089;-42
2023/06/01 11:30:35;;;;;;;;;;;;;;;28.16;34.64;100725.59;5026617;28;1092;-43
2023/06/01 11:33:00;;;;;;;;;;;;;;;28.48;34.28;100729.69;5027939;28;1055;-45
2023/06/01 11:35:27;;;;;;;;;;;;;;;28.43;33.88;100723.19;5034676;28;1107;-44
2023/06/01 11:37:53;;;;;;;;;;;;;;;28.77;33.20;100716.22;5037549;28;901;-45
2023/06/01 11:40:20;;;;;;;;;;;;;;;28.78;32.41;100717.06;5033999;28;1910;-45
2023/06/01 11:42:46;;;;;;;;;;;;;;;28.99;31.94;100718.09;5018083;28;1015;-43
2023/06/01 11:45:14;;;;;;;;;;;;;;;29.04;31.39;100711.06;5048485;28;1195;-44
2023/06/01 11:47:39;;;;;;;;;;;;;;;29.14;30.65;100715.28;5068011;28;1143;-43
2023/06/01 11:50:05;;;;;;;;;;;;;;;29.08;30.62;100706.06;5060718;28;1082;-44
2023/06/01 11:52:31;;;;;;;;;;;;;;;28.77;31.06;100704.53;5056933;28;1051;-44
2023/06/01 11:55:01;;;;;;;;;;;;;;;28.79;31.01;100699.78;5057532;28;1234;-43
2023/06/01 11:57:27;;;;;;;;;;;;;;;28.61;31.43;100701.09;5060023;28;1199;-44
2023/06/01 11:59:53;;;;;;;;;;;;;;;28.48;31.57;100697.22;5050029;28;1914;-44
2023/06/01 12:02:24;;;;;;;;;;;;;;;28.74;31.36;100694.97;5060329;28;1046;-44
2023/06/01 12:05:06;;;;;;;;;;;;;;;28.58;31.88;100696.91;5070767;28;1138;-44
2023/06/01 12:07:32;;;;;;;;;;;;;;;28.44;31.94;100692.41;5067215;28;1110;-43
2023/06/01 12:09:59;;;;;;;;;;;;;;;28.51;31.97;100698.69;5057621;28;1060;-42
2023/06/01 12:12:25;;;;;;;;;;;;;;;28.51;32.19;100685.16;5045327;28;1036;-44
2023/06/01 12:14:51;;;;;;;;;;;;;;;28.54;32.12;100687.50;5059851;28;1039;-43
2023/06/01 12:17:17;;;;;;;;;;;;;;;28.50;32.48;100688.06;5077273;28;1034;-43
2023/06/01 12:19:46;;;;;;;;;;;;;;;28.52;32.33;100680.59;5064991;28;1980;-43
2023/06/01 12:22:12;;;;;;;;;;;;;;;28.49;32.60;100679.13;5057269;28;1158;-43
2023/06/01 12:24:38;;;;;;;;;;;;;;;28.83;31.79;100676.69;5068490;28;1035;-43
2023/06/01 12:27:12;;;;;;;;;;;;;;;28.79;32.15;100683.53;5071380;28;1062;-43
2023/06/01 12:29:38;;;;;;;;;;;;;;;29.03;31.22;100674.16;5056878;28;1147;-39
2023/06/01 12:32:04;;;;;;;;;;;;;;;28.82;28.73;100673.16;5074572;28;1089;-38
2023/06/01 12:34:29;;;;;;;;;;;;;;;29.01;29.44;100667.28;5057454;28;1087;-39
2023/06/01 12:36:55;;;;;;;;;;;;;;;28.87;30.60;100672.56;5057525;28;1247;-39
2023/06/01 12:39:36;;;;;;;;;;;;;;;28.75;30.94;100677.69;5076492;28;1918;-39
2023/06/01 12:42:03;;;;;;;;;;;;;;;28.69;30.86;100678.47;5063324;28;1209;-39
2023/06/01 12:44:28;;;;;;;;;;;;;;;28.60;31.10;100667.78;5066534;28;1151;-37
2023/06/01 12:46:58;;;;;;;;;;;;;;;28.47;31.75;100663.09;5055107;28;1197;-38